Time;durP1;ratioP1;P1;durP2;ratioP2;P2;SDS_P1;SDS_P2;PMS_P1;PMS_P2;Temp;Humidity;BMP_temperature;BMP_pressure;BME280_temperature;BME280_humidity;BME280_pressure;Samples;Min_cycle;Max_cycle;Signal;HPM_P1;HPM_P2
2023/08/21 00:01:37;;;;;;;5.00;2.50;;;22.80;78.90;;;;;;5100141;28;20035;-77
2023/08/21 00:04:02;;;;;;;3.25;1.80;;;22.80;80.00;;;;;;5117132;28;20027;-76
2023/08/21 00:06:28;;;;;;;4.05;2.33;;;22.70;79.20;;;;;;5116789;28;20091;-77
2023/08/21 00:08:54;;;;;;;5.22;2.25;;;22.60;79.60;;;;;;5099870;28;20034;-77
2023/08/21 00:11:19;;;;;;;4.07;1.98;;;22.60;79.50;;;;;;5099840;28;20032;-77
2023/08/21 00:13:47;;;;;;;5.20;2.10;;;22.50;79.20;;;;;;5134667;28;20042;-77
2023/08/21 00:16:13;;;;;;;5.30;2.00;;;22.40;79.40;;;;;;5100073;28;20023;-77
2023/08/21 00:18:39;;;;;;;5.38;1.90;;;22.40;80.10;;;;;;5116541;28;20058;-77
2023/08/21 00:21:05;;;;;;;3.15;2.25;;;22.30;80.20;;;;;;5116625;28;20023;-77
2023/08/21 00:23:31;;;;;;;3.65;1.95;;;22.40;80.30;;;;;;5116636;28;20091;-76
2023/08/21 00:25:56;;;;;;;5.13;1.77;;;22.40;80.30;;;;;;5116729;28;20031;-76
2023/08/21 00:28:22;;;;;;;5.25;2.17;;;22.40;80.20;;;;;;5134467;28;20466;-76
2023/08/21 00:30:49;;;;;;;4.60;2.05;;;22.40;80.40;;;;;;5116426;28;20036;-76
2023/08/21 00:33:15;;;;;;;3.90;1.70;;;22.40;80.60;;;;;;5116343;28;20043;-76
2023/08/21 00:35:41;;;;;;;5.80;2.20;;;22.40;80.40;;;;;;5099445;28;20020;-76
2023/08/21 00:38:07;;;;;;;5.78;2.20;;;22.40;80.40;;;;;;5134316;28;20031;-76
2023/08/21 00:40:32;;;;;;;3.17;1.98;;;22.40;80.30;;;;;;5082711;28;20079;-76
2023/08/21 00:42:58;;;;;;;7.20;2.33;;;22.30;81.30;;;;;;5134237;28;20379;-76
2023/08/21 00:45:24;;;;;;;6.10;2.35;;;22.30;80.20;;;;;;5082639;28;20047;-76
2023/08/21 00:47:50;;;;;;;4.43;2.65;;;22.40;80.10;;;;;;5116201;28;20035;-77
2023/08/21 00:50:15;;;;;;;3.88;2.47;;;22.30;80.10;;;;;;5116254;28;20570;-76
2023/08/21 00:52:44;;;;;;;5.68;2.30;;;22.40;80.30;;;;;;5115442;28;20035;-76
2023/08/21 00:55:11;;;;;;;7.35;2.50;;;22.40;80.30;;;;;;5134015;28;20458;-76
2023/08/21 00:57:37;;;;;;;4.35;2.50;;;22.40;80.30;;;;;;5099346;28;20045;-76
2023/08/21 01:00:04;;;;;;;5.90;2.30;;;22.30;80.40;;;;;;5134030;28;20027;-76
2023/08/21 01:02:30;;;;;;;3.47;2.30;;;22.30;80.70;;;;;;5082576;28;20019;-76
2023/08/21 01:04:56;;;;;;;4.18;2.25;;;22.20;80.90;;;;;;5116042;28;20034;-76
2023/08/21 01:07:21;;;;;;;4.45;2.30;;;22.20;81.20;;;;;;5133918;28;20422;-76
2023/08/21 01:10:11;;;;;;;6.78;2.50;;;22.10;81.10;;;;;;5133949;28;20055;-76
2023/08/21 01:12:44;;;;;;;7.68;2.47;;;22.00;81.30;;;;;;5115928;28;20112;-76
2023/08/21 01:15:10;;;;;;;5.00;2.60;;;21.90;81.90;;;;;;5115750;28;20027;-77
2023/08/21 01:17:40;;;;;;;6.30;2.50;;;21.90;82.30;;;;;;5115713;28;20067;-76
2023/08/21 01:20:10;;;;;;;3.22;2.50;;;21.80;82.60;;;;;;5115995;28;20045;-77
2023/08/21 01:22:38;;;;;;;7.10;2.40;;;21.80;82.70;;;;;;5116303;28;20524;-77
2023/08/21 01:25:05;;;;;;;6.20;2.28;;;21.80;83.00;;;;;;5115707;28;20023;-77
2023/08/21 01:27:31;;;;;;;7.43;2.45;;;21.80;83.00;;;;;;5099098;28;20028;-77
2023/08/21 01:29:57;;;;;;;4.78;2.45;;;21.90;82.80;;;;;;5115719;28;20450;-77
2023/08/21 01:32:41;;;;;;;3.53;2.58;;;21.90;82.80;;;;;;5133729;28;20028;-77
2023/08/21 01:35:09;;;;;;;5.18;2.10;;;21.90;82.70;;;;;;5115673;28;20043;-76
2023/08/21 01:37:36;;;;;;;5.10;2.22;;;21.90;82.60;;;;;;5116021;28;20027;-77
2023/08/21 01:40:02;;;;;;;6.22;2.50;;;21.90;82.50;;;;;;5115547;28;20053;-77
2023/08/21 01:42:27;;;;;;;3.42;2.53;;;22.00;82.50;;;;;;5133613;28;20043;-77
2023/08/21 01:44:53;;;;;;;7.32;2.25;;;22.00;82.50;;;;;;5098648;28;20133;-77
2023/08/21 01:47:19;;;;;;;5.80;2.17;;;22.00;82.70;;;;;;5133551;28;20470;-77
2023/08/21 01:49:45;;;;;;;6.10;2.80;;;22.00;82.70;;;;;;5115596;28;20038;-77
2023/08/21 01:52:10;;;;;;;5.72;2.80;;;22.00;82.70;;;;;;5133564;28;20032;-77
2023/08/21 01:54:36;;;;;;;6.38;2.80;;;22.00;82.60;;;;;;5098681;28;20095;-77
2023/08/21 01:57:02;;;;;;;4.45;2.10;;;21.90;82.60;;;;;;5115637;28;20031;-77
2023/08/21 01:59:28;;;;;;;3.55;2.40;;;21.90;82.80;;;;;;5115408;28;20024;-76
2023/08/21 02:01:54;;;;;;;5.13;2.80;;;21.90;83.00;;;;;;5098546;28;20113;-77
2023/08/21 02:04:19;;;;;;;6.32;2.53;;;21.90;83.20;;;;;;5119135;28;20020;-76
2023/08/21 02:06:45;;;;;;;5.40;2.35;;;21.90;83.20;;;;;;5102273;28;20035;-77
2023/08/21 02:09:11;;;;;;;6.90;3.28;;;21.80;83.20;;;;;;5085430;28;20045;-77
2023/08/21 02:11:37;;;;;;;5.50;2.50;;;21.80;83.00;;;;;;5137130;28;20130;-76
2023/08/21 02:14:03;;;;;;;5.55;2.50;;;21.90;82.90;;;;;;5119205;28;20024;-77
2023/08/21 02:16:29;;;;;;;7.25;2.80;;;21.80;82.90;;;;;;5119229;28;20027;-76
2023/08/21 02:18:55;;;;;;;5.60;2.47;;;21.80;82.90;;;;;;5136831;28;20100;-76
2023/08/21 02:21:20;;;;;;;4.03;2.33;;;21.70;82.90;;;;;;5119015;28;20053;-77
2023/08/21 02:23:46;;;;;;;5.75;2.60;;;21.60;83.10;;;;;;5118950;28;20031;-76
2023/08/21 02:26:12;;;;;;;4.38;2.47;;;21.60;83.00;;;;;;5118953;28;20043;-76
2023/08/21 02:28:37;;;;;;;3.92;2.58;;;21.60;82.80;;;;;;5101775;28;20035;-76
2023/08/21 02:31:03;;;;;;;4.45;2.50;;;21.60;82.80;;;;;;5101875;28;20035;-76
2023/08/21 02:33:29;;;;;;;6.13;2.63;;;21.60;83.00;;;;;;5118633;28;20028;-76
2023/08/21 02:35:54;;;;;;;5.30;2.40;;;21.50;83.10;;;;;;5101710;28;20053;-76
2023/08/21 02:38:20;;;;;;;6.03;2.67;;;21.60;82.80;;;;;;5101631;28;20031;-76
2023/08/21 02:40:47;;;;;;;3.30;2.03;;;21.50;82.60;;;;;;5136607;28;20020;-76
2023/08/21 02:43:13;;;;;;;5.63;2.53;;;21.40;83.10;;;;;;5136555;28;20015;-76
2023/08/21 02:45:38;;;;;;;6.68;2.70;;;21.30;83.20;;;;;;5136497;28;20045;-76
2023/08/21 02:48:04;;;;;;;6.20;2.35;;;21.30;83.00;;;;;;5118525;28;20027;-76
2023/08/21 02:50:31;;;;;;;4.35;2.15;;;21.30;82.70;;;;;;5101446;28;20054;-76
2023/08/21 02:52:56;;;;;;;3.03;1.90;;;21.30;82.70;;;;;;5101415;28;20050;-77
2023/08/21 02:55:22;;;;;;;8.65;2.47;;;21.30;82.90;;;;;;5136350;28;20483;-77
2023/08/21 02:57:47;;;;;;;4.70;2.67;;;21.20;83.10;;;;;;5118248;28;20034;-77
2023/08/21 03:00:13;;;;;;;4.68;2.10;;;21.20;83.10;;;;;;5118367;28;20027;-77
2023/08/21 03:02:42;;;;;;;5.78;2.50;;;21.10;82.90;;;;;;5118254;28;20028;-76
2023/08/21 03:05:09;;;;;;;6.28;2.40;;;21.10;82.90;;;;;;5101713;28;20035;-77
2023/08/21 03:07:34;;;;;;;3.28;2.20;;;21.10;82.90;;;;;;5136082;28;20031;-76
2023/08/21 03:10:01;;;;;;;5.55;2.25;;;21.10;82.60;;;;;;5101239;28;20080;-77
2023/08/21 03:12:27;;;;;;;4.15;2.10;;;21.10;82.60;;;;;;5084834;28;20024;-77
2023/08/21 03:14:53;;;;;;;6.47;2.50;;;21.10;82.80;;;;;;5135213;28;20043;-76
2023/08/21 03:17:18;;;;;;;7.05;2.45;;;21.00;83.00;;;;;;5117794;28;20064;-76
2023/08/21 03:19:44;;;;;;;3.65;2.08;;;21.00;83.00;;;;;;5117940;28;20032;-76
2023/08/21 03:22:10;;;;;;;4.63;2.00;;;21.00;82.90;;;;;;5100884;28;20034;-76
2023/08/21 03:24:35;;;;;;;6.75;2.67;;;21.00;82.90;;;;;;5117793;28;20032;-77
2023/08/21 03:27:02;;;;;;;7.30;2.45;;;21.10;83.90;;;;;;5135706;28;20039;-76
2023/08/21 03:29:27;;;;;;;4.28;2.30;;;21.10;83.20;;;;;;5135638;28;20031;-77
2023/08/21 03:31:56;;;;;;;4.78;2.25;;;21.00;83.50;;;;;;5117732;28;20032;-77
2023/08/21 03:34:22;;;;;;;5.07;2.30;;;21.00;83.60;;;;;;5135396;28;20032;-77
2023/08/21 03:36:48;;;;;;;5.00;2.35;;;21.00;83.50;;;;;;5135520;28;20094;-77
2023/08/21 03:39:14;;;;;;;6.85;2.58;;;21.10;83.40;;;;;;5117505;28;20028;-77
2023/08/21 03:41:40;;;;;;;4.82;2.60;;;21.00;83.30;;;;;;5100314;28;20020;-77
2023/08/21 03:44:06;;;;;;;4.25;2.70;;;21.00;83.50;;;;;;5100473;28;20031;-77
2023/08/21 03:46:32;;;;;;;5.28;2.40;;;21.00;83.50;;;;;;5135308;28;20046;-77
2023/08/21 03:48:57;;;;;;;6.00;2.70;;;21.00;83.60;;;;;;5083604;28;20049;-77
2023/08/21 03:51:23;;;;;;;5.88;2.78;;;21.00;83.70;;;;;;5100315;28;20036;-77
2023/08/21 03:53:49;;;;;;;4.93;2.95;;;21.00;83.80;;;;;;5135074;28;20024;-76
2023/08/21 03:56:15;;;;;;;9.82;3.15;;;21.00;83.80;;;;;;5135062;28;20077;-76
2023/08/21 03:58:41;;;;;;;7.55;3.55;;;21.00;83.80;;;;;;5100061;28;20020;-76
2023/08/21 04:01:06;;;;;;;5.60;3.15;;;20.90;83.90;;;;;;5134952;28;20024;-76
2023/08/21 04:03:33;;;;;;;5.72;3.05;;;20.90;84.10;;;;;;5134990;28;20038;-77
2023/08/21 04:05:59;;;;;;;5.65;2.80;;;20.80;84.30;;;;;;5117075;28;20028;-76
2023/08/21 04:08:25;;;;;;;6.35;3.17;;;20.80;84.40;;;;;;5134893;28;20123;-76
2023/08/21 04:10:52;;;;;;;7.32;3.10;;;20.80;84.30;;;;;;5134814;28;20020;-77
2023/08/21 04:13:18;;;;;;;6.28;3.17;;;20.80;84.10;;;;;;5099981;28;20028;-76
2023/08/21 04:15:49;;;;;;;6.78;3.17;;;20.80;84.10;;;;;;5099883;28;20039;-76
2023/08/21 04:18:14;;;;;;;5.57;3.08;;;20.80;84.00;;;;;;5116538;28;20039;-76
2023/08/21 04:20:40;;;;;;;4.82;2.92;;;20.80;84.00;;;;;;5116471;28;20028;-76
2023/08/21 04:23:06;;;;;;;3.10;2.58;;;20.80;83.90;;;;;;5099817;28;20035;-76
2023/08/21 04:25:31;;;;;;;7.15;3.42;;;20.70;84.00;;;;;;5082503;28;20027;-76
2023/08/21 04:27:57;;;;;;;6.78;2.88;;;20.70;84.30;;;;;;5115955;28;20053;-77
2023/08/21 04:30:23;;;;;;;5.88;2.92;;;20.70;84.50;;;;;;5116518;28;20080;-76
2023/08/21 04:32:48;;;;;;;6.90;3.05;;;20.70;84.80;;;;;;5099490;28;20047;-76
2023/08/21 04:35:15;;;;;;;5.95;2.63;;;20.60;84.90;;;;;;5116200;28;20103;-77
2023/08/21 04:37:44;;;;;;;8.70;3.17;;;20.70;84.90;;;;;;5134398;28;20027;-76
2023/08/21 04:40:11;;;;;;;5.20;2.80;;;20.70;85.00;;;;;;5099381;28;20024;-76
2023/08/21 04:42:36;;;;;;;9.18;3.03;;;20.70;85.10;;;;;;5116511;28;20039;-76
2023/08/21 04:45:02;;;;;;;5.05;3.00;;;20.70;84.90;;;;;;5099274;28;20035;-77
2023/08/21 04:47:28;;;;;;;7.43;2.97;;;20.70;84.70;;;;;;5099344;28;20049;-76
2023/08/21 04:49:55;;;;;;;6.35;3.20;;;20.70;84.50;;;;;;5099182;28;20035;-77
2023/08/21 04:52:21;;;;;;;7.72;3.30;;;20.60;84.70;;;;;;5099242;28;20030;-76
2023/08/21 04:54:50;;;;;;;6.03;2.75;;;20.60;85.60;;;;;;5116044;28;20024;-77
2023/08/21 04:57:17;;;;;;;7.40;2.92;;;20.60;84.60;;;;;;5099188;28;20034;-77
2023/08/21 04:59:43;;;;;;;6.65;3.00;;;20.60;84.70;;;;;;5116042;28;20043;-77
2023/08/21 05:02:09;;;;;;;7.00;3.10;;;20.60;84.90;;;;;;5134059;28;20019;-77
2023/08/21 05:04:36;;;;;;;9.27;3.50;;;20.50;85.10;;;;;;5099053;28;20099;-76
2023/08/21 05:07:02;;;;;;;4.78;3.22;;;20.50;85.50;;;;;;5115882;28;20020;-76
2023/08/21 05:09:28;;;;;;;6.50;2.92;;;20.50;85.90;;;;;;5133845;28;20072;-76
2023/08/21 05:11:54;;;;;;;8.65;3.25;;;20.50;86.20;;;;;;5115902;28;20022;-76
2023/08/21 05:14:20;;;;;;;6.97;2.80;;;20.50;86.30;;;;;;5133860;28;20024;-76
2023/08/21 05:16:46;;;;;;;6.78;3.28;;;20.50;86.40;;;;;;5115690;28;20114;-77
2023/08/21 05:19:12;;;;;;;7.80;3.88;;;20.60;86.40;;;;;;5082246;28;20043;-76
2023/08/21 05:21:38;;;;;;;4.82;2.88;;;20.60;86.70;;;;;;5115864;28;20027;-76
2023/08/21 05:24:04;;;;;;;5.65;3.20;;;20.70;87.10;;;;;;5082165;28;20027;-77
2023/08/21 05:26:29;;;;;;;5.82;3.30;;;20.70;87.30;;;;;;5133806;28;20039;-77
2023/08/21 05:28:55;;;;;;;8.32;3.40;;;20.80;87.60;;;;;;5115853;28;20110;-76
2023/08/21 05:31:22;;;;;;;7.03;3.58;;;20.80;87.70;;;;;;5098871;28;20031;-77
2023/08/21 05:33:47;;;;;;;8.65;3.42;;;20.80;87.80;;;;;;5133595;28;20500;-76
2023/08/21 05:36:13;;;;;;;8.20;3.67;;;20.90;88.00;;;;;;5115718;28;20083;-77
2023/08/21 05:38:38;;;;;;;6.60;3.10;;;20.90;87.90;;;;;;5084712;28;20028;-77
2023/08/21 05:41:04;;;;;;;8.15;3.47;;;20.90;87.80;;;;;;5102780;28;20027;-77
2023/08/21 05:43:30;;;;;;;6.88;3.55;;;21.00;87.70;;;;;;5137685;28;20053;-76
2023/08/21 05:45:56;;;;;;;6.85;3.60;;;21.00;87.60;;;;;;5119581;28;20057;-76
2023/08/21 05:48:21;;;;;;;7.28;3.28;;;21.00;87.60;;;;;;5119587;28;20027;-77
2023/08/21 05:50:53;;;;;;;8.52;3.45;;;21.10;87.50;;;;;;5102631;28;20042;-76
2023/08/21 05:53:19;;;;;;;7.80;3.80;;;21.10;87.60;;;;;;5137460;28;20023;-76
2023/08/21 05:55:45;;;;;;;5.63;3.17;;;21.20;87.60;;;;;;5119498;28;20030;-77
2023/08/21 05:58:10;;;;;;;6.25;3.30;;;21.10;87.40;;;;;;5119654;28;20043;-76
2023/08/21 06:00:39;;;;;;;7.50;3.67;;;21.20;87.40;;;;;;5102546;28;20024;-77
2023/08/21 06:03:04;;;;;;;8.38;3.58;;;21.30;87.30;;;;;;5137282;28;20054;-76
2023/08/21 06:05:30;;;;;;;6.57;3.55;;;21.30;87.30;;;;;;5102376;28;20028;-77
2023/08/21 06:07:56;;;;;;;6.43;3.53;;;21.30;87.40;;;;;;5102389;28;20028;-77
2023/08/21 06:10:22;;;;;;;7.85;3.80;;;21.30;87.40;;;;;;5119201;28;20032;-78
2023/08/21 06:12:48;;;;;;;9.52;3.78;;;21.40;87.30;;;;;;5119256;28;20050;-77
2023/08/21 06:15:13;;;;;;;6.38;3.35;;;21.40;87.20;;;;;;5119200;28;20023;-77
2023/08/21 06:17:40;;;;;;;6.63;3.75;;;21.40;87.20;;;;;;5118852;28;20138;-77
2023/08/21 06:20:08;;;;;;;7.78;3.65;;;21.50;87.10;;;;;;5119074;28;20023;-77
2023/08/21 06:22:34;;;;;;;10.75;5.03;;;21.50;87.10;;;;;;5119344;28;20016;-77
2023/08/21 06:25:00;;;;;;;5.63;3.78;;;21.50;87.20;;;;;;5118978;28;20032;-77
2023/08/21 06:27:26;;;;;;;10.02;4.35;;;21.50;87.20;;;;;;5136856;28;20027;-77
2023/08/21 06:29:52;;;;;;;6.20;4.03;;;21.50;87.20;;;;;;5118959;28;20447;-77
2023/08/21 06:32:17;;;;;;;7.97;3.35;;;21.60;87.00;;;;;;5118680;28;20049;-77
2023/08/21 06:34:43;;;;;;;8.02;3.83;;;21.60;86.80;;;;;;5101568;28;20118;-77
2023/08/21 06:37:09;;;;;;;9.57;4.40;;;21.70;86.90;;;;;;5118755;28;20024;-77
2023/08/21 06:39:34;;;;;;;7.55;4.03;;;21.60;87.00;;;;;;5101700;28;20016;-77
2023/08/21 06:42:00;;;;;;;9.02;4.40;;;21.60;87.10;;;;;;5118486;28;20022;-77
2023/08/21 06:44:26;;;;;;;8.20;5.00;;;21.70;87.20;;;;;;5136550;28;20044;-77
2023/08/21 06:46:52;;;;;;;9.82;4.47;;;21.70;87.10;;;;;;5118531;28;20546;-76
2023/08/21 06:49:18;;;;;;;9.27;4.70;;;21.70;87.00;;;;;;5135394;28;20036;-76
2023/08/21 06:51:43;;;;;;;8.15;4.13;;;21.70;87.00;;;;;;5118405;28;20028;-76
2023/08/21 06:54:09;;;;;;;7.05;4.43;;;21.70;87.00;;;;;;5101592;28;20032;-76
2023/08/21 06:56:35;;;;;;;8.43;4.57;;;21.70;87.20;;;;;;5118192;28;20088;-76
2023/08/21 06:59:01;;;;;;;9.38;4.72;;;21.70;87.30;;;;;;5101422;28;20076;-77
2023/08/21 07:01:27;;;;;;;10.30;4.95;;;21.70;87.30;;;;;;5118426;28;20027;-77
2023/08/21 07:03:53;;;;;;;9.02;4.00;;;21.70;87.20;;;;;;5118101;28;20027;-76
2023/08/21 07:06:19;;;;;;;13.07;5.30;;;21.80;86.90;;;;;;5136111;28;20027;-76
2023/08/21 07:08:45;;;;;;;7.15;4.18;;;21.80;86.80;;;;;;5118237;28;20032;-76
2023/08/21 07:11:12;;;;;;;10.40;4.10;;;21.80;86.90;;;;;;5118412;28;20077;-77
2023/08/21 07:13:38;;;;;;;7.93;4.00;;;21.80;86.80;;;;;;5135883;28;20024;-77
2023/08/21 07:16:05;;;;;;;6.68;3.75;;;21.90;86.80;;;;;;5117919;28;20037;-76
2023/08/21 07:18:34;;;;;;;9.65;4.07;;;21.90;86.70;;;;;;5135732;28;20111;-76
2023/08/21 07:21:01;;;;;;;8.55;3.83;;;21.90;86.80;;;;;;5117760;28;20387;-76
2023/08/21 07:23:26;;;;;;;9.25;3.88;;;21.90;86.90;;;;;;5117968;28;20031;-76
2023/08/21 07:25:52;;;;;;;8.45;3.75;;;22.00;87.00;;;;;;5117763;28;20027;-77
2023/08/21 07:28:17;;;;;;;6.38;3.30;;;22.00;86.80;;;;;;5117686;28;20046;-76
2023/08/21 07:30:43;;;;;;;6.60;3.80;;;22.10;86.60;;;;;;5100631;28;20034;-77
2023/08/21 07:33:09;;;;;;;8.25;3.88;;;22.10;86.30;;;;;;5117630;28;20031;-76
2023/08/21 07:35:35;;;;;;;7.38;3.97;;;22.20;86.40;;;;;;5117622;28;20069;-76
2023/08/21 07:38:01;;;;;;;8.93;3.70;;;22.20;86.20;;;;;;5100727;28;20031;-76
2023/08/21 07:40:27;;;;;;;8.38;3.30;;;22.30;85.90;;;;;;5117452;28;20062;-76
2023/08/21 07:42:53;;;;;;;9.13;3.72;;;22.40;85.40;;;;;;5117396;28;20028;-77
2023/08/21 07:45:18;;;;;;;6.55;3.55;;;22.40;85.10;;;;;;5117312;28;20031;-76
2023/08/21 07:47:44;;;;;;;7.53;3.47;;;22.50;85.40;;;;;;5117186;28;20051;-76
2023/08/21 07:50:10;;;;;;;7.88;3.70;;;22.60;85.30;;;;;;5135123;28;20028;-76
2023/08/21 07:52:36;;;;;;;8.73;3.17;;;22.70;85.10;;;;;;5135236;28;20020;-76
2023/08/21 07:55:03;;;;;;;3.92;2.35;;;22.70;84.70;;;;;;5117193;28;20111;-76
2023/08/21 07:57:29;;;;;;;7.55;2.60;;;22.80;84.10;;;;;;5117432;28;20031;-76
2023/08/21 07:59:55;;;;;;;6.75;2.60;;;22.80;84.10;;;;;;5117297;28;20463;-76
2023/08/21 08:02:21;;;;;;;5.97;2.15;;;22.90;84.00;;;;;;5116815;28;20106;-77
2023/08/21 08:04:46;;;;;;;3.40;1.70;;;23.00;83.90;;;;;;5117015;28;20023;-77
2023/08/21 08:07:12;;;;;;;4.55;1.40;;;23.00;83.40;;;;;;5099979;28;20639;-76
2023/08/21 08:09:39;;;;;;;5.30;1.58;;;23.10;82.60;;;;;;5116997;28;20027;-76
2023/08/21 08:12:05;;;;;;;5.70;1.50;;;23.20;82.50;;;;;;5116732;28;20111;-76
2023/08/21 08:14:31;;;;;;;4.05;1.30;;;23.20;81.70;;;;;;5116687;28;20028;-77
2023/08/21 08:16:57;;;;;;;13.38;3.90;;;23.30;81.30;;;;;;5116706;28;20503;-77
2023/08/21 08:19:22;;;;;;;5.07;2.00;;;23.30;80.90;;;;;;5099544;28;20048;-75
2023/08/21 08:21:48;;;;;;;7.38;2.00;;;23.40;81.00;;;;;;5116688;28;20051;-76
2023/08/21 08:24:14;;;;;;;4.10;1.38;;;23.40;80.90;;;;;;5099693;28;20024;-76
2023/08/21 08:26:40;;;;;;;5.70;1.35;;;23.40;80.00;;;;;;5082902;28;20034;-75
2023/08/21 08:29:06;;;;;;;5.82;1.55;;;23.40;80.30;;;;;;5099661;28;20057;-76
2023/08/21 08:31:32;;;;;;;3.70;1.08;;;23.50;80.20;;;;;;5099588;28;20039;-76
2023/08/21 08:33:58;;;;;;;6.05;1.70;;;23.60;79.60;;;;;;5099625;28;20024;-76
2023/08/21 08:36:24;;;;;;;4.68;1.58;;;23.60;79.80;;;;;;5116360;28;20058;-77
2023/08/21 08:38:49;;;;;;;4.82;1.50;;;23.70;79.70;;;;;;5116378;28;20024;-77
2023/08/21 08:41:33;;;;;;;5.68;1.42;;;23.80;79.20;;;;;;5116394;28;20034;-77
2023/08/21 08:44:00;;;;;;;6.70;1.58;;;23.80;78.90;;;;;;5134300;28;20019;-77
2023/08/21 08:46:29;;;;;;;4.05;1.20;;;23.90;78.30;;;;;;5116192;28;20019;-75
2023/08/21 08:48:55;;;;;;;2.83;1.20;;;23.90;78.00;;;;;;5116259;28;20052;-75
2023/08/21 08:51:24;;;;;;;6.50;1.90;;;23.90;76.80;;;;;;5099379;28;20028;-77
2023/08/21 08:53:50;;;;;;;3.90;1.20;;;24.00;75.40;;;;;;5116101;28;20023;-77
2023/08/21 08:56:16;;;;;;;5.93;1.60;;;24.00;76.50;;;;;;5116081;28;20034;-77
2023/08/21 08:58:42;;;;;;;4.47;1.23;;;24.00;76.60;;;;;;5116043;28;20028;-77
2023/08/21 09:01:10;;;;;;;5.25;1.60;;;24.00;76.70;;;;;;5115996;28;20015;-77
2023/08/21 09:03:37;;;;;;;6.80;1.38;;;24.10;76.00;;;;;;5099862;28;20047;-76
2023/08/21 09:06:03;;;;;;;4.78;1.50;;;24.20;74.90;;;;;;5116021;28;20031;-76
2023/08/21 09:08:29;;;;;;;5.10;1.60;;;24.10;75.10;;;;;;5099222;28;20101;-77
2023/08/21 09:10:55;;;;;;;6.00;1.20;;;24.10;75.40;;;;;;5116164;28;20032;-77
2023/08/21 09:13:21;;;;;;;3.47;1.23;;;24.20;76.00;;;;;;5115260;28;20020;-77
2023/08/21 09:15:54;;;;;;;3.58;1.30;;;24.30;75.90;;;;;;5115830;28;20031;-77
2023/08/21 09:18:19;;;;;;;4.53;1.30;;;24.50;74.90;;;;;;5115708;28;20071;-77
2023/08/21 09:20:45;;;;;;;5.05;1.45;;;24.50;74.60;;;;;;5115824;28;20050;-77
2023/08/21 09:23:16;;;;;;;5.40;1.30;;;24.50;75.20;;;;;;5133954;28;20019;-76
2023/08/21 09:25:46;;;;;;;4.07;1.30;;;24.50;74.00;;;;;;5115835;28;20026;-77
2023/08/21 09:28:12;;;;;;;5.00;1.50;;;24.50;73.60;;;;;;5099161;28;20090;-77
2023/08/21 09:30:49;;;;;;;4.70;1.27;;;24.70;74.00;;;;;;5115738;28;20028;-77
2023/08/21 09:33:18;;;;;;;3.72;1.33;;;24.80;74.00;;;;;;5115829;28;20023;-77
2023/08/21 09:35:44;;;;;;;5.53;1.45;;;24.80;73.30;;;;;;5115673;28;20507;-77
2023/08/21 09:38:10;;;;;;;5.30;1.17;;;24.80;74.10;;;;;;5115651;28;20036;-76
2023/08/21 09:40:51;;;;;;;4.65;1.20;;;25.00;74.70;;;;;;5133688;28;20020;-76
2023/08/21 09:43:16;;;;;;;3.13;1.40;;;25.20;74.80;;;;;;5133682;28;20020;-77
2023/08/21 09:45:50;;;;;;;8.30;1.50;;;25.30;74.40;;;;;;5098821;28;20038;-77
2023/08/21 09:48:16;;;;;;;4.38;1.60;;;25.40;73.90;;;;;;5133618;28;20069;-77
2023/08/21 09:50:44;;;;;;;3.70;1.17;;;25.50;73.70;;;;;;5098721;28;20099;-77
2023/08/21 09:53:11;;;;;;;6.30;1.60;;;25.60;73.50;;;;;;5098849;28;20027;-77
2023/08/21 09:55:38;;;;;;;4.25;1.40;;;25.70;73.00;;;;;;5133457;28;20050;-77
2023/08/21 09:58:04;;;;;;;4.50;1.23;;;25.70;72.80;;;;;;5133529;28;20093;-77
2023/08/21 10:00:31;;;;;;;4.95;1.50;;;25.80;73.30;;;;;;5098691;28;20466;-77
2023/08/21 10:03:04;;;;;;;4.13;1.60;;;25.90;72.60;;;;;;5133452;28;20050;-77
2023/08/21 10:05:36;;;;;;;7.30;1.60;;;26.00;71.60;;;;;;5133497;28;20027;-77
2023/08/21 10:08:04;;;;;;;6.60;1.42;;;26.10;71.30;;;;;;5115436;28;20023;-77
2023/08/21 10:10:35;;;;;;;6.25;1.58;;;26.10;71.00;;;;;;5115311;28;20019;-77
2023/08/21 10:13:02;;;;;;;5.25;1.45;;;26.10;69.50;;;;;;5098517;28;20028;-77
2023/08/21 10:15:28;;;;;;;4.45;1.23;;;26.10;69.80;;;;;;5133276;28;20031;-77
2023/08/21 10:17:54;;;;;;;6.65;1.70;;;26.10;70.30;;;;;;5115321;28;20044;-77
2023/08/21 10:20:26;;;;;;;4.90;1.25;;;26.20;70.80;;;;;;5115416;28;20074;-77
2023/08/21 10:23:03;;;;;;;6.28;1.55;;;26.40;71.50;;;;;;5098369;28;20039;-77
2023/08/21 10:25:29;;;;;;;3.38;1.40;;;26.50;70.20;;;;;;5117293;28;20023;-77
2023/08/21 10:27:57;;;;;;;3.83;1.50;;;26.60;69.60;;;;;;5118848;28;20402;-77
2023/08/21 10:30:24;;;;;;;6.15;1.40;;;26.70;69.60;;;;;;5136851;28;20120;-77
2023/08/21 10:32:52;;;;;;;3.90;1.33;;;26.70;69.50;;;;;;5101851;28;20062;-77
2023/08/21 10:35:22;;;;;;;3.72;1.48;;;26.90;69.60;;;;;;5118575;28;20019;-77
2023/08/21 10:38:07;;;;;;;3.70;1.90;;;26.90;68.90;;;;;;5118722;28;20083;-77
2023/08/21 10:40:35;;;;;;;4.45;1.52;;;27.00;68.80;;;;;;5118680;28;20098;-77
2023/08/21 10:43:02;;;;;;;6.20;1.83;;;27.10;68.10;;;;;;5101817;28;20031;-77
2023/08/21 10:45:27;;;;;;;5.20;1.23;;;27.20;67.00;;;;;;5118476;28;20012;-77
2023/08/21 10:47:59;;;;;;;4.45;1.50;;;27.20;66.40;;;;;;5118576;28;20039;-77
2023/08/21 10:50:26;;;;;;;3.20;1.10;;;27.20;65.00;;;;;;5136521;28;20027;-77
2023/08/21 10:52:52;;;;;;;3.72;1.40;;;27.20;65.70;;;;;;5118480;28;20019;-77
2023/08/21 10:55:19;;;;;;;3.25;1.33;;;27.20;64.50;;;;;;5118218;28;20028;-77
2023/08/21 10:57:47;;;;;;;4.35;1.60;;;27.20;64.20;;;;;;5118245;28;20012;-77
2023/08/21 11:00:18;;;;;;;4.05;1.25;;;27.20;64.60;;;;;;5136251;28;20045;-76
2023/08/21 11:02:46;;;;;;;5.93;1.10;;;27.20;63.50;;;;;;5136231;28;20016;-76
2023/08/21 11:05:13;;;;;;;5.75;1.27;;;27.20;62.70;;;;;;5118134;28;20051;-77
2023/08/21 11:07:41;;;;;;;3.35;1.08;;;27.20;62.50;;;;;;5101340;28;20046;-76
2023/08/21 11:10:09;;;;;;;5.95;1.55;;;27.30;62.00;;;;;;5117875;28;20079;-78
2023/08/21 11:12:35;;;;;;;4.32;1.33;;;27.30;60.90;;;;;;5136055;28;20479;-77
2023/08/21 11:15:01;;;;;;;9.02;1.38;;;27.20;61.20;;;;;;5117993;28;20042;-77
2023/08/21 11:17:26;;;;;;;3.85;1.30;;;27.20;63.40;;;;;;5100723;28;20044;-77
2023/08/21 11:19:52;;;;;;;2.78;1.30;;;27.20;63.20;;;;;;5117991;28;20032;-76
2023/08/21 11:22:18;;;;;;;3.20;1.52;;;27.30;61.20;;;;;;5084248;28;20016;-77
2023/08/21 11:24:46;;;;;;;4.15;1.50;;;27.30;62.70;;;;;;5117744;28;20492;-77
2023/08/21 11:27:14;;;;;;;5.18;1.60;;;27.40;62.20;;;;;;5117630;28;20034;-77
2023/08/21 11:29:47;;;;;;;5.15;1.38;;;27.50;62.10;;;;;;5117783;28;20049;-77
2023/08/21 11:32:26;;;;;;;5.95;1.92;;;27.50;62.30;;;;;;5117569;28;20027;-77
2023/08/21 11:34:58;;;;;;;5.35;1.73;;;27.70;61.90;;;;;;5115458;28;20047;-79
2023/08/21 11:37:26;;;;;;;4.50;1.85;;;27.70;61.10;;;;;;5135398;28;20056;-77
2023/08/21 11:39:57;;;;;;;4.85;1.58;;;27.80;61.40;;;;;;5135501;28;20022;-76
2023/08/21 11:42:30;;;;;;;3.33;1.45;;;27.80;61.00;;;;;;5135627;28;20027;-76
2023/08/21 11:44:56;;;;;;;4.45;1.60;;;27.90;61.70;;;;;;5135382;28;20026;-76
2023/08/21 11:47:23;;;;;;;4.65;1.60;;;27.90;61.50;;;;;;5117425;28;20031;-77
2023/08/21 11:49:50;;;;;;;4.10;1.30;;;28.00;62.00;;;;;;5117320;28;20020;-76
2023/08/21 11:52:26;;;;;;;3.97;1.90;;;28.10;60.10;;;;;;5135208;28;20024;-76
2023/08/21 11:54:53;;;;;;;2.42;1.42;;;28.00;58.50;;;;;;5135293;28;20031;-76
2023/08/21 11:57:20;;;;;;;4.45;1.35;;;27.90;60.00;;;;;;5135161;28;20071;-76
2023/08/21 11:59:53;;;;;;;3.90;1.50;;;27.80;58.20;;;;;;5117035;28;20087;-76
2023/08/21 12:02:26;;;;;;;3.08;1.20;;;27.70;59.80;;;;;;5117210;28;20024;-76
2023/08/21 12:04:53;;;;;;;4.47;1.40;;;27.70;60.50;;;;;;5135140;28;20031;-76
2023/08/21 12:07:19;;;;;;;3.78;1.48;;;27.80;61.00;;;;;;5116842;28;20035;-75
2023/08/21 12:09:51;;;;;;;3.35;1.25;;;28.00;59.70;;;;;;5134899;28;20028;-76
2023/08/21 12:12:16;;;;;;;6.82;1.80;;;28.00;59.00;;;;;;5116727;28;20039;-76
2023/08/21 12:14:43;;;;;;;5.05;1.83;;;27.90;60.00;;;;;;5099814;28;20403;-76
2023/08/21 12:17:08;;;;;;;3.42;1.50;;;27.80;59.80;;;;;;5134754;28;20012;-75
2023/08/21 12:19:34;;;;;;;5.05;1.98;;;27.80;60.50;;;;;;5096001;28;20059;-76
2023/08/21 12:21:59;;;;;;;4.63;1.80;;;27.90;59.20;;;;;;5114270;28;20032;-76
2023/08/21 12:24:25;;;;;;;3.25;1.50;;;28.10;59.80;;;;;;5113267;28;20033;-75
2023/08/21 12:26:51;;;;;;;4.13;1.60;;;28.10;57.60;;;;;;5113326;28;20039;-76
2023/08/21 12:29:17;;;;;;;3.25;1.40;;;28.10;57.90;;;;;;5113213;28;20062;-76
2023/08/21 12:31:42;;;;;;;5.60;1.70;;;28.20;56.60;;;;;;5113210;28;20020;-76
2023/08/21 12:34:08;;;;;;;5.75;1.88;;;28.30;58.30;;;;;;5112962;28;20047;-76
2023/08/21 12:36:36;;;;;;;3.00;1.58;;;28.30;58.50;;;;;;5113052;28;20032;-76
2023/08/21 12:39:03;;;;;;;4.18;1.60;;;28.30;58.20;;;;;;5112940;28;20040;-76
2023/08/21 12:41:29;;;;;;;5.15;1.90;;;28.20;58.80;;;;;;5113970;28;20027;-76
2023/08/21 12:43:54;;;;;;;4.55;1.55;;;28.20;59.80;;;;;;5113767;28;20028;-76